Winstonville, MS (38781)

11:49 PM CDT on June 29, 2015 (GMT -0500)
Cleveland Municipal | | Change Station
CLOSE
Current Station
Airport
Location: Cleveland Municipal Airport,
Elevation: 138 ft
Nearby Weather Stations
Active Advisory: Flood Advisory

Elev 138 ft 33.76 °N, 90.76 °W | Updated 14 minutes ago

Clear
Clear
76 °F
Feels Like 76 °F
N
6
Wind Variable Wind from SSW

Today
High -- | Low -- °F
--% Chance of Precip.
Yesterday
High -- | Low -- °F
Precip. -- in
5:54 AM 8:17 PM
Waxing Gibbous, 96% visible
Pressure 29.92 in
Visibility 10.0 miles
Clouds Clear
Dew Point 75 °F
Humidity 96%
Rainfall 0.00 in
Snow Depth Not available.
UV 0 out of 12
Pollen 4.10 out of 12
Air Quality Not available.
Flu Activity No Activity
METAR KRNV 300435Z AUTO 20005KT 10SM CLR 25/24 A2992 RMK AO2 T02460240

More Conditions Fewer Conditions

Pressure 29.92 in
Visibility 10.0 miles
Clouds Clear
Dew Point 75 °F
Humidity 96%
Rainfall 0.00 in
Snow Depth Not available.
UV 0 out of 12
Pollen 4.10 out of 12
Air Quality Not available.
Flu Activity No Activity
METAR KRNV 300435Z AUTO 20005KT 10SM CLR 25/24 A2992 RMK AO2 T02460240

More Conditions Fewer Conditions

10-Day Weather Forecast

×

Almanac

Astronomy

Jun. 29, 2015 Rise Set
Actual Time
Civil Twilight
Nautical Twilight
Astronomical Twilight
Moon
Length of Visible Light
Length of Day
Tomorrow will be .
, % of the Moon is Illuminated

Today's Extremes

State Highs State Lows

Community

WunderPhotos

Upload Photos

1,833,965 photos uploaded!

WunderBlogs® & News

Nearby

Air Quality

  Air Quality AQ Index Pollutant
Not available.

Snow Depth

Station Depth Elevation

Earthquake Activity

City Distance Mag. Time & Date
Minimum magnitude displayed is 2.5.

Coastal Water Temperatures

Place Temperature

Stations

Nearby Weather Stations

Station Location Temp. Windchill Dew Point Humidity Wind Precip. Elev Updated Type
                   
Flood Advisory
Statement as of 11:48 AM CDT on June 29, 2015

The Flood Advisory continues for
the Mississippi River near Arkansas City.
* Until Saturday afternoon.
* At 11:00 am Monday the stage was 33.2 feet.
* Flood stage is 37.0 feet.
* Forecast... the river will rise to near 36.0 feet by Sunday July 12.
* Impact... at 35.0 feet... the Road to Donaldson Point is cut off.


              Flood observed forecast 7 am crest
location stg stg day time Tue Wed Thu crest time date

Lower Mississippi River
Arkansas City 37 33.2 Mon 11 am 33.6 34.0 34.2 36.0 07 am 07/12




Lat... Lon 3340 9128 3357 9128 3413 9108 3412 9066
      3358 9106 3340 9105